Time,TemperatureF,DewpointF,PressureIn,WindDirection,WindDirectionDegrees,WindSpeedMPH,WindSpeedGustMPH,Humidity,HourlyPrecipIn,Conditions,Clouds,dailyrainin,SoftwareType,DateUTC
2013-06-23 00:01:00,72.1,72.1,29.95,NNE,30,0.0,0.0,100,0.00,,,0.00,Wunderground v.1.15,2013-06-23 04:01:00,
2013-06-23 00:03:00,72.1,72.1,29.95,NNE,28,0.0,0.0,100,0.00,,,0.00,Wunderground v.1.15,2013-06-23 04:03:00,
2013-06-23 00:05:00,72.1,72.1,29.95,NNE,25,0.0,0.0,100,0.00,,,0.00,Wunderground v.1.15,2013-06-23 04:05:00,
2013-06-23 00:08:00,72.0,72.0,29.95,NNE,23,0.0,0.0,100,0.00,,,0.00,Wunderground v.1.15,2013-06-23 04:08:00,
2013-06-23 00:11:00,72.0,72.0,29.95,NNE,27,0.0,0.0,100,0.00,,,0.00,Wunderground v.1.15,2013-06-23 04:11:00,
2013-06-23 00:17:00,71.8,71.8,29.96,NNE,23,0.0,0.0,100,0.00,,,0.00,Wunderground v.1.15,2013-06-23 04:17:00,
2013-06-23 00:22:00,71.6,71.6,29.96,NNE,24,0.0,0.0,100,0.00,,,0.00,Wunderground v.1.15,2013-06-23 04:22:00,
2013-06-23 00:28:00,71.6,71.6,29.96,NNE,25,0.0,0.0,100,0.00,,,0.00,Wunderground v.1.15,2013-06-23 04:28:00,
2013-06-23 00:33:00,71.5,71.5,29.96,NNE,25,0.0,0.0,100,0.00,,,0.00,Wunderground v.1.15,2013-06-23 04:33:00,
2013-06-23 00:39:00,70.4,70.4,29.96,SE,133,0.0,0.0,100,0.00,,,0.00,Wunderground v.1.15,2013-06-23 04:39:00,
2013-06-23 00:44:00,70.4,70.4,29.96,SE,134,0.0,0.0,100,0.00,,,0.00,Wunderground v.1.15,2013-06-23 04:44:00,
2013-06-23 00:50:00,70.3,70.3,29.96,SE,134,0.0,0.0,100,0.00,,,0.00,Wunderground v.1.15,2013-06-23 04:50:00,
2013-06-23 00:56:00,70.1,70.1,29.96,SE,134,0.0,0.0,100,0.00,,,0.00,Wunderground v.1.15,2013-06-23 04:56:00,
2013-06-23 01:01:00,69.9,69.9,29.95,SE,134,0.0,0.0,100,0.00,,,0.00,Wunderground v.1.15,2013-06-23 05:01:00,
2013-06-23 01:06:00,69.9,69.9,29.95,SE,134,0.0,0.0,100,0.00,,,0.00,Wunderground v.1.15,2013-06-23 05:06:00,
2013-06-23 01:12:00,69.8,69.8,29.95,SE,134,0.0,0.0,100,0.00,,,0.00,Wunderground v.1.15,2013-06-23 05:12:00,
2013-06-23 01:17:00,69.6,69.6,29.95,SE,134,0.0,0.0,100,0.00,,,0.00,Wunderground v.1.15,2013-06-23 05:17:00,
2013-06-23 01:23:00,69.4,69.4,29.95,SE,134,0.0,0.0,100,0.00,,,0.00,Wunderground v.1.15,2013-06-23 05:23:00,
2013-06-23 01:28:00,69.3,69.3,29.95,SE,134,0.0,0.0,100,0.00,,,0.00,Wunderground v.1.15,2013-06-23 05:28:00,
2013-06-23 01:34:00,69.3,69.3,29.95,SE,134,0.0,0.0,100,0.00,,,0.00,Wunderground v.1.15,2013-06-23 05:34:00,
2013-06-23 01:40:00,68.9,68.9,29.95,SE,134,0.0,0.0,100,0.00,,,0.00,Wunderground v.1.15,2013-06-23 05:40:00,
2013-06-23 01:45:00,68.9,68.9,29.94,SE,134,0.0,0.0,100,0.00,,,0.00,Wunderground v.1.15,2013-06-23 05:45:00,
2013-06-23 01:50:00,68.8,68.8,29.94,SE,134,0.0,0.0,100,0.00,,,0.00,Wunderground v.1.15,2013-06-23 05:50:00,
2013-06-23 01:56:00,68.8,68.8,29.94,SE,134,0.0,0.0,100,0.00,,,0.00,Wunderground v.1.15,2013-06-23 05:56:00,
2013-06-23 02:01:00,68.8,68.8,29.94,SE,134,0.0,0.0,100,0.00,,,0.00,Wunderground v.1.15,2013-06-23 06:01:00,
2013-06-23 02:02:00,68.8,68.8,29.94,SE,134,0.0,0.0,100,0.00,,,0.00,Wunderground v.1.15,2013-06-23 06:02:00,
2013-06-23 02:07:00,68.8,68.8,29.94,SE,133,0.0,0.0,100,0.00,,,0.00,Wunderground v.1.15,2013-06-23 06:07:00,
2013-06-23 02:12:00,68.9,68.9,29.94,SE,131,0.0,0.0,100,0.00,,,0.00,Wunderground v.1.15,2013-06-23 06:12:00,
2013-06-23 02:17:00,69.4,69.4,29.95,NNE,27,0.0,0.0,100,0.00,,,0.00,Wunderground v.1.15,2013-06-23 06:17:00,
2013-06-23 02:23:00,69.3,69.3,29.95,NNE,27,0.0,0.0,100,0.00,,,0.00,Wunderground v.1.15,2013-06-23 06:23:00,
2013-06-23 02:29:00,69.3,69.3,29.95,NNE,28,0.0,0.0,100,0.00,,,0.00,Wunderground v.1.15,2013-06-23 06:29:00,
2013-06-23 02:34:00,69.3,69.3,29.94,NNE,27,0.0,0.0,100,0.00,,,0.00,Wunderground v.1.15,2013-06-23 06:34:00,
2013-06-23 02:40:00,69.1,69.1,29.94,NNE,27,0.0,0.0,100,0.00,,,0.00,Wunderground v.1.15,2013-06-23 06:40:00,
2013-06-23 02:46:00,69.1,69.1,29.94,NNE,28,0.0,0.0,100,0.00,,,0.00,Wunderground v.1.15,2013-06-23 06:46:00,
2013-06-23 02:51:00,68.9,68.9,29.94,NNE,28,0.0,0.0,100,0.00,,,0.00,Wunderground v.1.15,2013-06-23 06:51:00,
2013-06-23 02:56:00,68.9,68.9,29.94,NNE,30,0.0,0.0,100,0.00,,,0.00,Wunderground v.1.15,2013-06-23 06:56:00,
2013-06-23 03:02:00,68.8,68.8,29.94,NNE,30,0.0,0.0,100,0.00,,,0.00,Wunderground v.1.15,2013-06-23 07:02:00,
2013-06-23 03:07:00,68.8,68.8,29.94,NNE,28,0.0,0.0,100,0.00,,,0.00,Wunderground v.1.15,2013-06-23 07:07:00,
2013-06-23 03:12:00,68.8,68.8,29.94,NNE,28,0.0,0.0,100,0.00,,,0.00,Wunderground v.1.15,2013-06-23 07:12:00,
2013-06-23 03:17:00,68.8,68.8,29.94,NNE,30,0.0,0.0,100,0.00,,,0.00,Wunderground v.1.15,2013-06-23 07:17:00,
2013-06-23 03:23:00,68.6,68.6,29.94,NNE,30,0.0,0.0,100,0.00,,,0.00,Wunderground v.1.15,2013-06-23 07:23:00,
2013-06-23 03:29:00,68.8,68.8,29.94,NNE,31,0.0,0.0,100,0.00,,,0.00,Wunderground v.1.15,2013-06-23 07:29:00,
2013-06-23 03:34:00,68.6,68.6,29.94,NNE,30,0.0,0.0,100,0.00,,,0.00,Wunderground v.1.15,2013-06-23 07:34:00,
2013-06-23 03:39:00,68.6,68.6,29.94,NNE,30,0.0,0.0,100,0.00,,,0.00,Wunderground v.1.15,2013-06-23 07:39:00,
2013-06-23 03:45:00,68.3,68.3,29.93,NNE,31,0.0,0.0,100,0.00,,,0.00,Wunderground v.1.15,2013-06-23 07:45:00,
2013-06-23 03:50:00,68.1,68.1,29.93,NNE,32,0.0,0.0,100,0.00,,,0.00,Wunderground v.1.15,2013-06-23 07:50:00,
2013-06-23 03:56:00,67.9,67.9,29.93,NNE,32,0.0,0.0,100,0.00,,,0.00,Wunderground v.1.15,2013-06-23 07:56:00,
2013-06-23 04:02:00,67.8,67.8,29.93,NE,35,0.0,0.0,100,0.00,,,0.00,Wunderground v.1.15,2013-06-23 08:02:00,
2013-06-23 04:08:00,67.8,67.8,29.93,NE,37,0.0,0.0,100,0.00,,,0.00,Wunderground v.1.15,2013-06-23 08:08:00,
2013-06-23 04:14:00,67.8,67.8,29.93,NE,34,0.0,0.0,100,0.00,,,0.00,Wunderground v.1.15,2013-06-23 08:14:00,
2013-06-23 04:19:00,67.9,67.9,29.94,NE,34,0.0,3.0,100,0.00,,,0.00,Wunderground v.1.15,2013-06-23 08:19:00,
2013-06-23 04:25:00,68.3,68.3,29.94,NE,48,2.0,4.0,100,0.00,,,0.00,Wunderground v.1.15,2013-06-23 08:25:00,
2013-06-23 04:31:00,68.1,68.1,29.94,NE,47,1.0,1.0,100,0.00,,,0.00,Wunderground v.1.15,2013-06-23 08:31:00,
2013-06-23 04:36:00,68.1,68.1,29.94,NE,47,0.0,1.0,100,0.00,,,0.00,Wunderground v.1.15,2013-06-23 08:36:00,
2013-06-23 04:42:00,67.9,67.9,29.94,NE,48,0.0,0.0,100,0.00,,,0.00,Wunderground v.1.15,2013-06-23 08:42:00,
2013-06-23 04:47:00,67.9,67.9,29.95,NE,49,0.0,0.0,100,0.00,,,0.00,Wunderground v.1.15,2013-06-23 08:47:00,
2013-06-23 04:53:00,67.6,67.6,29.95,NE,49,0.0,0.0,100,0.00,,,0.00,Wunderground v.1.15,2013-06-23 08:53:00,
2013-06-23 04:59:00,67.6,67.6,29.95,NE,49,0.0,0.0,100,0.00,,,0.00,Wunderground v.1.15,2013-06-23 08:59:00,
2013-06-23 05:04:00,67.4,67.4,29.96,NE,51,0.0,0.0,100,0.00,,,0.00,Wunderground v.1.15,2013-06-23 09:04:00,
2013-06-23 05:10:00,67.4,67.4,29.96,NE,51,0.0,0.0,100,0.00,,,0.00,Wunderground v.1.15,2013-06-23 09:10:00,
2013-06-23 05:15:00,67.3,67.3,29.96,NE,51,0.0,0.0,100,0.00,,,0.00,Wunderground v.1.15,2013-06-23 09:15:00,
2013-06-23 05:21:00,67.3,67.3,29.96,NE,52,0.0,0.0,100,0.00,,,0.00,Wunderground v.1.15,2013-06-23 09:21:00,
2013-06-23 05:26:00,67.1,67.1,29.96,NE,51,0.0,0.0,100,0.00,,,0.00,Wunderground v.1.15,2013-06-23 09:26:00,
2013-06-23 05:32:00,67.3,67.3,29.96,NNE,21,0.0,3.0,100,0.00,,,0.00,Wunderground v.1.15,2013-06-23 09:32:00,
2013-06-23 05:38:00,67.3,67.3,29.96,NNE,21,0.0,3.0,100,0.00,,,0.00,Wunderground v.1.15,2013-06-23 09:38:00,
2013-06-23 05:44:00,67.3,67.3,29.96,NNE,20,0.0,0.0,100,0.00,,,0.00,Wunderground v.1.15,2013-06-23 09:44:00,
2013-06-23 05:49:00,67.3,67.3,29.96,NNE,21,0.0,0.0,100,0.00,,,0.00,Wunderground v.1.15,2013-06-23 09:49:00,
2013-06-23 05:55:00,67.4,67.4,29.96,NNE,21,0.0,0.0,100,0.00,,,0.00,Wunderground v.1.15,2013-06-23 09:55:00,
2013-06-23 06:00:00,67.4,67.4,29.96,NNE,20,0.0,0.0,100,0.00,,,0.00,Wunderground v.1.15,2013-06-23 10:00:00,
2013-06-23 06:05:00,67.4,67.4,29.96,NNE,21,0.0,0.0,100,0.00,,,0.00,Wunderground v.1.15,2013-06-23 10:05:00,
2013-06-23 06:11:00,67.4,67.4,29.96,NNE,21,0.0,0.0,100,0.00,,,0.00,Wunderground v.1.15,2013-06-23 10:11:00,
2013-06-23 06:16:00,67.3,67.3,29.96,NNE,21,0.0,0.0,100,0.00,,,0.00,Wunderground v.1.15,2013-06-23 10:16:00,
2013-06-23 06:22:00,67.3,67.3,29.96,NNE,21,0.0,2.0,100,0.00,,,0.00,Wunderground v.1.15,2013-06-23 10:22:00,
2013-06-23 06:27:00,67.3,67.3,29.96,NNE,21,0.0,2.0,100,0.00,,,0.00,Wunderground v.1.15,2013-06-23 10:27:00,
2013-06-23 06:34:00,67.3,67.3,29.96,NNE,21,0.0,0.0,100,0.00,,,0.00,Wunderground v.1.15,2013-06-23 10:34:00,
2013-06-23 06:39:00,67.4,67.4,29.96,NNE,21,0.0,0.0,100,0.00,,,0.00,Wunderground v.1.15,2013-06-23 10:39:00,
2013-06-23 06:44:00,67.4,67.4,29.96,NNE,21,0.0,0.0,100,0.00,,,0.00,Wunderground v.1.15,2013-06-23 10:44:00,
2013-06-23 06:50:00,67.6,67.6,29.95,NNE,18,0.0,0.0,100,0.00,,,0.00,Wunderground v.1.15,2013-06-23 10:50:00,
2013-06-23 06:56:00,67.8,67.8,29.95,NNE,17,0.0,0.0,100,0.00,,,0.00,Wunderground v.1.15,2013-06-23 10:56:00,
2013-06-23 07:01:00,67.9,67.9,29.94,NNE,17,0.0,3.0,100,0.00,,,0.00,Wunderground v.1.15,2013-06-23 11:01:00,
2013-06-23 07:06:00,68.1,68.1,29.94,NNE,17,0.0,3.0,100,0.00,,,0.00,Wunderground v.1.15,2013-06-23 11:06:00,
2013-06-23 07:12:00,68.3,68.3,29.94,NNE,17,0.0,0.0,100,0.00,,,0.00,Wunderground v.1.15,2013-06-23 11:12:00,
2013-06-23 07:17:00,68.8,68.8,29.95,NNE,17,0.0,0.0,100,0.00,,,0.00,Wunderground v.1.15,2013-06-23 11:17:00,
2013-06-23 07:22:00,68.9,68.9,29.95,NNE,16,0.0,0.0,100,0.00,,,0.00,Wunderground v.1.15,2013-06-23 11:22:00,
2013-06-23 07:29:00,69.1,69.1,29.95,NNE,16,0.0,0.0,100,0.00,,,0.00,Wunderground v.1.15,2013-06-23 11:29:00,
2013-06-23 07:34:00,69.3,69.3,29.96,NNE,16,0.0,2.0,100,0.00,,,0.00,Wunderground v.1.15,2013-06-23 11:34:00,
2013-06-23 07:39:00,69.3,69.3,29.96,NNE,17,0.0,2.0,100,0.00,,,0.00,Wunderground v.1.15,2013-06-23 11:39:00,
2013-06-23 07:44:00,69.6,69.6,29.96,NNE,17,0.0,0.0,100,0.00,,,0.00,Wunderground v.1.15,2013-06-23 11:44:00,
2013-06-23 07:49:00,69.6,69.6,29.95,NNE,17,0.0,2.0,100,0.00,,,0.00,Wunderground v.1.15,2013-06-23 11:49:00,
2013-06-23 07:54:00,69.8,69.8,29.95,NNE,18,0.0,0.0,100,0.00,,,0.00,Wunderground v.1.15,2013-06-23 11:54:00,
2013-06-23 08:00:00,69.8,69.8,29.96,NNE,16,0.0,0.0,100,0.00,,,0.00,Wunderground v.1.15,2013-06-23 12:00:00,
2013-06-23 08:06:00,70.1,70.1,29.96,NNE,14,0.0,2.0,100,0.00,,,0.00,Wunderground v.1.15,2013-06-23 12:06:00,
2013-06-23 08:11:00,70.3,70.3,29.96,NNE,14,0.0,0.0,100,0.00,,,0.00,Wunderground v.1.15,2013-06-23 12:11:00,
2013-06-23 08:17:00,70.4,70.4,29.95,NNE,14,1.0,2.0,100,0.00,,,0.00,Wunderground v.1.15,2013-06-23 12:17:00,
2013-06-23 08:22:00,70.6,70.6,29.95,NNE,13,1.0,1.0,100,0.00,,,0.00,Wunderground v.1.15,2013-06-23 12:22:00,
2013-06-23 08:29:00,70.8,70.8,29.95,NNE,13,1.0,5.0,100,0.00,,,0.00,Wunderground v.1.15,2013-06-23 12:29:00,
2013-06-23 08:34:00,70.9,70.9,29.95,NNE,13,1.0,2.0,100,0.00,,,0.00,Wunderground v.1.15,2013-06-23 12:34:00,
2013-06-23 08:39:00,71.1,71.1,29.95,North,11,0.0,2.0,100,0.00,,,0.00,Wunderground v.1.15,2013-06-23 12:39:00,
2013-06-23 08:44:00,71.3,71.3,29.95,North,8,0.0,5.0,100,0.00,,,0.00,Wunderground v.1.15,2013-06-23 12:44:00,
2013-06-23 08:49:00,71.5,71.5,29.94,North,10,1.0,5.0,100,0.00,,,0.00,Wunderground v.1.15,2013-06-23 12:49:00,
2013-06-23 08:55:00,72.0,72.0,29.94,North,11,2.0,5.0,100,0.00,,,0.00,Wunderground v.1.15,2013-06-23 12:55:00,
2013-06-23 09:00:00,72.1,72.1,29.93,North,10,2.0,3.0,100,0.00,,,0.00,Wunderground v.1.15,2013-06-23 13:00:00,
2013-06-23 09:05:00,72.3,72.3,29.93,North,11,1.0,7.0,100,0.00,,,0.00,Wunderground v.1.15,2013-06-23 13:05:00,
2013-06-23 09:11:00,72.8,72.8,29.93,North,11,2.0,2.0,100,0.00,,,0.00,Wunderground v.1.15,2013-06-23 13:11:00,
2013-06-23 09:16:00,73.2,73.2,29.92,North,10,2.0,3.0,100,0.00,,,0.00,Wunderground v.1.15,2013-06-23 13:16:00,
2013-06-23 09:21:00,73.7,73.7,29.92,North,8,2.0,5.0,100,0.00,,,0.00,Wunderground v.1.15,2013-06-23 13:21:00,
2013-06-23 09:27:00,74.0,74.0,29.92,North,10,2.0,5.0,100,0.00,,,0.00,Wunderground v.1.15,2013-06-23 13:27:00,
2013-06-23 09:34:00,74.2,74.2,29.91,North,11,2.0,2.0,100,0.00,,,0.00,Wunderground v.1.15,2013-06-23 13:34:00,
2013-06-23 09:39:00,74.6,74.6,29.91,North,10,1.0,5.0,100,0.00,,,0.00,Wunderground v.1.15,2013-06-23 13:39:00,
2013-06-23 09:44:00,74.7,74.7,29.91,North,8,2.0,2.0,100,0.00,,,0.00,Wunderground v.1.15,2013-06-23 13:44:00,
2013-06-23 09:50:00,75.1,75.1,29.91,North,4,1.0,1.0,100,0.00,,,0.00,Wunderground v.1.15,2013-06-23 13:50:00,
2013-06-23 09:55:00,75.4,75.4,29.91,North,6,0.0,1.0,100,0.00,,,0.00,Wunderground v.1.15,2013-06-23 13:55:00,
2013-06-23 10:00:00,75.8,75.8,29.91,North,7,0.0,0.0,100,0.00,,,0.00,Wunderground v.1.15,2013-06-23 14:00:00,
2013-06-23 10:06:00,76.1,76.1,29.91,North,6,0.0,6.0,100,0.00,,,0.00,Wunderground v.1.15,2013-06-23 14:06:00,
2013-06-23 10:11:00,76.7,76.7,29.91,North,7,1.0,5.0,100,0.00,,,0.00,Wunderground v.1.15,2013-06-23 14:11:00,
2013-06-23 10:17:00,76.8,76.8,29.91,North,7,2.0,5.0,100,0.00,,,0.00,Wunderground v.1.15,2013-06-23 14:17:00,
2013-06-23 10:22:00,77.2,76.6,29.91,North,7,2.0,4.0,98,0.00,,,0.00,Wunderground v.1.15,2013-06-23 14:22:00,
2013-06-23 10:27:00,77.2,74.7,29.91,North,7,2.0,4.0,92,0.00,,,0.00,Wunderground v.1.15,2013-06-23 14:27:00,
2013-06-23 10:34:00,77.4,74.2,29.91,North,7,2.0,2.0,90,0.00,,,0.00,Wunderground v.1.15,2013-06-23 14:34:00,
2013-06-23 10:39:00,77.6,75.4,29.91,North,6,2.0,6.0,93,0.00,,,0.00,Wunderground v.1.15,2013-06-23 14:39:00,
2013-06-23 10:45:00,77.7,74.5,29.91,North,6,2.0,6.0,90,0.00,,,0.00,Wunderground v.1.15,2013-06-23 14:45:00,
2013-06-23 10:50:00,78.1,75.3,29.91,North,6,2.0,2.0,91,0.00,,,0.00,Wunderground v.1.15,2013-06-23 14:50:00,
2013-06-23 10:56:00,78.1,75.9,29.91,North,6,1.0,2.0,93,0.00,,,0.00,Wunderground v.1.15,2013-06-23 14:56:00,
2013-06-23 11:02:00,77.9,73.4,29.92,North,6,0.0,10.0,86,0.00,,,0.00,Wunderground v.1.15,2013-06-23 15:02:00,
2013-06-23 11:07:00,78.1,75.3,29.92,North,6,0.0,10.0,91,0.00,,,0.00,Wunderground v.1.15,2013-06-23 15:07:00,
2013-06-23 11:13:00,78.3,76.1,29.92,ENE,72,0.0,0.0,93,0.00,,,0.00,Wunderground v.1.15,2013-06-23 15:13:00,
2013-06-23 11:19:00,78.6,75.8,29.93,ENE,66,0.0,4.0,91,0.00,,,0.00,Wunderground v.1.15,2013-06-23 15:19:00,
2013-06-23 11:24:00,79.0,77.4,29.93,ENE,71,1.0,1.0,95,0.00,,,0.00,Wunderground v.1.15,2013-06-23 15:24:00,
2013-06-23 11:30:00,79.0,75.1,29.93,East,82,1.0,3.0,88,0.00,,,0.00,Wunderground v.1.15,2013-06-23 15:30:00,
2013-06-23 11:35:00,78.8,75.9,29.93,ENE,68,1.0,5.0,91,0.00,,,0.00,Wunderground v.1.15,2013-06-23 15:35:00,
2013-06-23 11:41:00,78.8,74.9,29.93,East,92,1.0,2.0,88,0.00,,,0.00,Wunderground v.1.15,2013-06-23 15:41:00,
2013-06-23 11:47:00,78.8,75.3,29.94,East,95,1.0,2.0,89,0.00,,,0.00,Wunderground v.1.15,2013-06-23 15:47:00,
2013-06-23 11:52:00,79.0,74.8,29.94,East,83,0.0,2.0,87,0.00,,,0.00,Wunderground v.1.15,2013-06-23 15:52:00,
2013-06-23 11:59:00,79.6,77.4,29.94,ENE,76,1.0,2.0,93,0.00,,,0.00,Wunderground v.1.15,2013-06-23 15:59:00,
2013-06-23 12:05:00,79.9,75.7,29.94,East,85,1.0,7.0,87,0.00,,,0.00,Wunderground v.1.15,2013-06-23 16:05:00,
2013-06-23 12:10:00,79.9,77.7,29.94,East,85,1.0,7.0,93,0.00,,,0.00,Wunderground v.1.15,2013-06-23 16:10:00,
2013-06-23 12:16:00,79.8,76.6,29.93,East,79,0.0,1.0,90,0.00,,,0.00,Wunderground v.1.15,2013-06-23 16:16:00,
2013-06-23 12:21:00,80.1,76.2,29.93,East,96,0.0,1.0,88,0.00,,,0.00,Wunderground v.1.15,2013-06-23 16:21:00,
2013-06-23 12:27:00,80.7,75.1,29.93,ENE,78,1.0,5.0,83,0.00,,,0.00,Wunderground v.1.15,2013-06-23 16:27:00,
2013-06-23 12:33:00,81.2,76.6,29.94,ENE,75,2.0,3.0,86,0.00,,,0.00,Wunderground v.1.15,2013-06-23 16:33:00,
2013-06-23 12:39:00,81.6,75.9,29.94,NE,56,1.0,3.0,83,0.00,,,0.00,Wunderground v.1.15,2013-06-23 16:39:00,
2013-06-23 12:45:00,81.8,77.5,29.94,ENE,78,1.0,7.0,87,0.00,,,0.00,Wunderground v.1.15,2013-06-23 16:45:00,
2013-06-23 12:51:00,81.8,77.5,29.94,East,79,1.0,1.0,87,0.00,,,0.00,Wunderground v.1.15,2013-06-23 16:51:00,
2013-06-23 12:56:00,81.8,77.5,29.94,SSE,150,1.0,5.0,87,0.00,,,0.00,Wunderground v.1.15,2013-06-23 16:56:00,
2013-06-23 12:58:00,81.8,77.2,29.94,East,79,1.0,5.0,86,0.00,,,0.00,Wunderground v.1.15,2013-06-23 16:58:00,
2013-06-23 12:59:00,81.8,76.5,29.94,SE,140,1.0,5.0,84,0.00,,,0.00,Wunderground v.1.15,2013-06-23 16:59:00,
2013-06-23 13:03:00,82.0,77.7,29.93,SSE,164,1.0,7.0,87,0.00,,,0.00,Wunderground v.1.15,2013-06-23 17:03:00,
2013-06-23 13:09:00,82.2,79.0,29.93,East,80,1.0,7.0,90,0.00,,,0.00,Wunderground v.1.15,2013-06-23 17:09:00,
2013-06-23 13:15:00,82.2,77.6,29.93,ENE,72,1.0,3.0,86,0.00,,,0.00,Wunderground v.1.15,2013-06-23 17:15:00,
2013-06-23 13:20:00,82.4,76.3,29.93,ENE,65,1.0,3.0,82,0.00,,,0.00,Wunderground v.1.15,2013-06-23 17:20:00,
2013-06-23 13:26:00,82.6,76.5,29.93,East,92,1.0,3.0,82,0.00,,,0.00,Wunderground v.1.15,2013-06-23 17:26:00,
2013-06-23 13:32:00,82.8,76.7,29.93,ENE,78,2.0,2.0,82,0.00,,,0.00,Wunderground v.1.15,2013-06-23 17:32:00,
2013-06-23 13:37:00,82.8,74.5,29.93,SW,227,1.0,2.0,76,0.00,,,0.00,Wunderground v.1.15,2013-06-23 17:37:00,
2013-06-23 13:43:00,83.2,77.1,29.93,ENE,78,1.0,2.0,82,0.00,,,0.00,Wunderground v.1.15,2013-06-23 17:43:00,
2013-06-23 13:49:00,83.4,74.6,29.93,ENE,66,1.0,2.0,75,0.00,,,0.00,Wunderground v.1.15,2013-06-23 17:49:00,
2013-06-23 13:54:00,83.6,76.4,29.93,South,171,1.0,3.0,79,0.00,,,0.00,Wunderground v.1.15,2013-06-23 17:54:00,
2013-06-23 14:00:00,83.8,75.0,29.93,East,79,1.0,5.0,75,0.00,,,0.00,Wunderground v.1.15,2013-06-23 18:00:00,
2013-06-23 14:05:00,83.8,75.8,29.93,ENE,69,2.0,8.0,77,0.00,,,0.00,Wunderground v.1.15,2013-06-23 18:05:00,
2013-06-23 14:11:00,84.0,74.4,29.93,SSW,206,1.0,1.0,73,0.00,,,0.00,Wunderground v.1.15,2013-06-23 18:11:00,
2013-06-23 14:17:00,84.1,72.8,29.92,SSW,212,1.0,1.0,69,0.00,,,0.00,Wunderground v.1.15,2013-06-23 18:17:00,
2013-06-23 14:22:00,84.3,73.0,29.92,SW,233,0.0,1.0,69,0.00,,,0.00,Wunderground v.1.15,2013-06-23 18:22:00,
2013-06-23 14:28:00,85.1,72.5,29.92,South,169,0.0,2.0,66,0.00,,,0.00,Wunderground v.1.15,2013-06-23 18:28:00,
2013-06-23 14:34:00,84.7,75.5,29.92,SSE,162,1.0,6.0,74,0.00,,,0.00,Wunderground v.1.15,2013-06-23 18:34:00,
2013-06-23 14:39:00,84.3,77.1,29.92,West,268,1.0,6.0,79,0.00,,,0.00,Wunderground v.1.15,2013-06-23 18:39:00,
2013-06-23 14:45:00,84.0,76.4,29.92,SSE,168,1.0,3.0,78,0.00,,,0.00,Wunderground v.1.15,2013-06-23 18:45:00,
2013-06-23 14:50:00,84.1,76.5,29.92,SE,143,1.0,3.0,78,0.00,,,0.00,Wunderground v.1.15,2013-06-23 18:50:00,
2013-06-23 14:55:00,83.0,77.7,29.92,SW,233,2.0,5.0,84,0.00,,,0.00,Wunderground v.1.15,2013-06-23 18:55:00,
2013-06-23 15:00:00,82.6,78.0,29.92,WSW,240,2.0,5.0,86,0.00,,,0.00,Wunderground v.1.15,2013-06-23 19:00:00,
2013-06-23 15:06:00,82.4,78.5,29.92,WSW,243,1.0,10.0,88,0.00,,,0.00,Wunderground v.1.15,2013-06-23 19:06:00,
2013-06-23 15:12:00,82.6,78.0,29.92,SW,236,1.0,1.0,86,0.00,,,0.00,Wunderground v.1.15,2013-06-23 19:12:00,
2013-06-23 15:18:00,82.4,77.4,29.91,SW,236,2.0,5.0,85,0.00,,,0.00,Wunderground v.1.15,2013-06-23 19:18:00,
2013-06-23 15:23:00,82.2,76.9,29.91,WSW,237,2.0,3.0,84,0.00,,,0.00,Wunderground v.1.15,2013-06-23 19:23:00,
2013-06-23 15:28:00,83.0,78.0,29.91,SSW,200,1.0,3.0,85,0.00,,,0.00,Wunderground v.1.15,2013-06-23 19:28:00,
2013-06-23 15:34:00,83.4,77.7,29.90,SSW,209,1.0,2.0,83,0.00,,,0.00,Wunderground v.1.15,2013-06-23 19:34:00,
2013-06-23 15:40:00,84.0,77.9,29.90,SSE,167,1.0,2.0,82,0.00,,,0.00,Wunderground v.1.15,2013-06-23 19:40:00,
2013-06-23 15:46:00,84.9,76.5,29.90,South,174,1.0,2.0,76,0.00,,,0.00,Wunderground v.1.15,2013-06-23 19:46:00,
2013-06-23 15:51:00,85.3,78.0,29.90,SSE,148,1.0,1.0,79,0.00,,,0.00,Wunderground v.1.15,2013-06-23 19:51:00,
2013-06-23 15:57:00,85.5,78.6,29.90,SSE,168,1.0,1.0,80,0.00,,,0.00,Wunderground v.1.15,2013-06-23 19:57:00,
2013-06-23 16:03:00,85.3,78.8,29.89,SSE,165,0.0,8.0,81,0.00,,,0.00,Wunderground v.1.15,2013-06-23 20:03:00,
2013-06-23 16:09:00,85.5,79.4,29.89,ENE,59,0.0,8.0,82,0.00,,,0.00,Wunderground v.1.15,2013-06-23 20:09:00,
2013-06-23 16:14:00,85.1,80.1,29.89,ENE,75,1.0,1.0,85,0.00,,,0.00,Wunderground v.1.15,2013-06-23 20:14:00,
2013-06-23 16:20:00,84.7,78.2,29.89,ENE,62,1.0,2.0,81,0.00,,,0.00,Wunderground v.1.15,2013-06-23 20:20:00,
2013-06-23 16:26:00,84.1,80.8,29.89,ENE,76,1.0,2.0,90,0.00,,,0.00,Wunderground v.1.15,2013-06-23 20:26:00,
2013-06-23 16:31:00,83.8,80.2,29.88,SSE,147,1.0,1.0,89,0.00,,,0.00,Wunderground v.1.15,2013-06-23 20:31:00,
2013-06-23 16:37:00,83.8,78.8,29.88,ENE,65,1.0,5.0,85,0.00,,,0.00,Wunderground v.1.15,2013-06-23 20:37:00,
2013-06-23 16:43:00,83.6,81.4,29.88,ENE,73,0.0,0.0,93,0.00,,,0.00,Wunderground v.1.15,2013-06-23 20:43:00,
2013-06-23 16:48:00,83.8,77.7,29.87,ENE,71,1.0,3.0,82,0.00,,,0.00,Wunderground v.1.15,2013-06-23 20:48:00,
2013-06-23 16:54:00,84.3,77.5,29.87,South,179,1.0,1.0,80,0.00,,,0.00,Wunderground v.1.15,2013-06-23 20:54:00,
2013-06-23 16:59:00,84.5,77.3,29.87,NE,52,0.0,1.0,79,0.00,,,0.00,Wunderground v.1.15,2013-06-23 20:59:00,
2013-06-23 17:05:00,84.7,77.1,29.87,ENE,69,0.0,7.0,78,0.00,,,0.00,Wunderground v.1.15,2013-06-23 21:05:00,
2013-06-23 17:10:00,85.3,76.9,29.87,South,189,1.0,7.0,76,0.00,,,0.00,Wunderground v.1.15,2013-06-23 21:10:00,
2013-06-23 17:15:00,85.5,75.9,29.87,South,191,1.0,2.0,73,0.00,,,0.00,Wunderground v.1.15,2013-06-23 21:15:00,
2013-06-23 17:21:00,85.3,77.3,29.87,ENE,72,1.0,1.0,77,0.00,,,0.00,Wunderground v.1.15,2013-06-23 21:21:00,
2013-06-23 17:27:00,84.7,75.5,29.87,SSE,162,0.0,2.0,74,0.00,,,0.00,Wunderground v.1.15,2013-06-23 21:27:00,
2013-06-23 17:33:00,84.7,77.5,29.88,South,188,0.0,0.0,79,0.00,,,0.00,Wunderground v.1.15,2013-06-23 21:33:00,
2013-06-23 17:38:00,84.7,78.2,29.88,ENE,69,0.0,1.0,81,0.00,,,0.00,Wunderground v.1.15,2013-06-23 21:38:00,
2013-06-23 17:44:00,84.9,76.5,29.87,SSW,208,0.0,0.0,76,0.00,,,0.00,Wunderground v.1.15,2013-06-23 21:44:00,
2013-06-23 17:49:00,84.7,78.2,29.87,ENE,72,0.0,1.0,81,0.00,,,0.00,Wunderground v.1.15,2013-06-23 21:49:00,
2013-06-23 17:55:00,84.1,77.3,29.87,ENE,71,0.0,0.0,80,0.00,,,0.00,Wunderground v.1.15,2013-06-23 21:55:00,
2013-06-23 18:00:00,83.8,76.6,29.86,East,85,0.0,0.0,79,0.00,,,0.00,Wunderground v.1.15,2013-06-23 22:00:00,
2013-06-23 18:05:00,83.4,77.0,29.86,SW,233,0.0,6.0,81,0.00,,,0.00,Wunderground v.1.15,2013-06-23 22:05:00,
2013-06-23 18:11:00,83.2,76.8,29.86,North,11,0.0,0.0,81,0.00,,,0.00,Wunderground v.1.15,2013-06-23 22:11:00,
2013-06-23 18:16:00,83.6,77.1,29.86,North,4,0.0,2.0,81,0.00,,,0.00,Wunderground v.1.15,2013-06-23 22:16:00,
2013-06-23 18:21:00,83.8,75.8,29.86,North,4,0.0,0.0,77,0.00,,,0.00,Wunderground v.1.15,2013-06-23 22:21:00,
2013-06-23 18:26:00,84.1,76.5,29.86,North,6,0.0,0.0,78,0.00,,,0.00,Wunderground v.1.15,2013-06-23 22:26:00,
2013-06-23 18:32:00,84.5,76.9,29.86,North,6,0.0,0.0,78,0.00,,,0.00,Wunderground v.1.15,2013-06-23 22:32:00,
2013-06-23 18:37:00,84.5,76.5,29.86,North,7,0.0,2.0,77,0.00,,,0.00,Wunderground v.1.15,2013-06-23 22:37:00,
2013-06-23 18:42:00,84.5,76.5,29.86,North,6,1.0,2.0,77,0.00,,,0.00,Wunderground v.1.15,2013-06-23 22:42:00,
2013-06-23 18:47:00,84.5,76.1,29.86,North,6,1.0,2.0,76,0.00,,,0.00,Wunderground v.1.15,2013-06-23 22:47:00,
2013-06-23 18:53:00,84.5,77.6,29.86,North,8,0.0,1.0,80,0.00,,,0.00,Wunderground v.1.15,2013-06-23 22:53:00,
2013-06-23 18:59:00,84.3,78.2,29.86,North,4,0.0,1.0,82,0.00,,,0.00,Wunderground v.1.15,2013-06-23 22:59:00,
2013-06-23 19:04:00,84.0,78.6,29.87,North,6,0.0,6.0,84,0.00,,,0.00,Wunderground v.1.15,2013-06-23 23:04:00,
2013-06-23 19:10:00,83.8,78.4,29.87,North,6,0.0,0.0,84,0.00,,,0.00,Wunderground v.1.15,2013-06-23 23:10:00,
2013-06-23 19:16:00,84.1,78.4,29.86,North,11,0.0,0.0,83,0.00,,,0.00,Wunderground v.1.15,2013-06-23 23:16:00,
2013-06-23 19:22:00,84.3,78.9,29.86,North,7,0.0,0.0,84,0.00,,,0.00,Wunderground v.1.15,2013-06-23 23:22:00,
2013-06-23 19:27:00,84.7,79.0,29.86,North,10,0.0,0.0,83,0.00,,,0.00,Wunderground v.1.15,2013-06-23 23:27:00,
2013-06-23 19:33:00,84.3,79.3,29.87,North,8,0.0,0.0,85,0.00,,,0.00,Wunderground v.1.15,2013-06-23 23:33:00,
2013-06-23 19:39:00,84.1,79.8,29.87,North,1,0.0,2.0,87,0.00,,,0.00,Wunderground v.1.15,2013-06-23 23:39:00,
2013-06-23 19:44:00,84.0,80.1,29.87,North,0,0.0,2.0,88,0.00,,,0.00,Wunderground v.1.15,2013-06-23 23:44:00,
2013-06-23 19:50:00,83.6,79.7,29.86,North,0,0.0,0.0,88,0.00,,,0.00,Wunderground v.1.15,2013-06-23 23:50:00,
2013-06-23 19:55:00,83.6,79.7,29.86,North,1,0.0,0.0,88,0.00,,,0.00,Wunderground v.1.15,2013-06-23 23:55:00,
2013-06-23 20:01:00,83.8,80.6,29.87,North,1,0.0,6.0,90,0.00,,,0.00,Wunderground v.1.15,2013-06-24 00:01:00,
2013-06-23 20:07:00,83.6,81.4,29.87,North,1,0.0,6.0,93,0.00,,,0.00,Wunderground v.1.15,2013-06-24 00:07:00,
2013-06-23 20:12:00,83.4,80.5,29.87,NNE,13,0.0,0.0,91,0.00,,,0.00,Wunderground v.1.15,2013-06-24 00:12:00,
2013-06-23 20:18:00,83.2,81.6,29.87,NNE,14,0.0,1.0,95,0.00,,,0.00,Wunderground v.1.15,2013-06-24 00:18:00,
2013-06-23 20:24:00,82.6,81.0,29.87,NNE,14,1.0,5.0,95,0.00,,,0.00,Wunderground v.1.15,2013-06-24 00:24:00,
2013-06-23 20:30:00,81.8,80.5,29.86,North,10,1.0,1.0,96,0.00,,,0.00,Wunderground v.1.15,2013-06-24 00:30:00,
2013-06-23 20:36:00,81.1,80.5,29.86,SE,136,0.0,2.0,98,0.00,,,0.00,Wunderground v.1.15,2013-06-24 00:36:00,
2013-06-23 20:41:00,80.5,80.2,29.86,SSE,152,0.0,0.0,99,0.00,,,0.00,Wunderground v.1.15,2013-06-24 00:41:00,
2013-06-23 20:46:00,80.1,80.1,29.86,SSE,162,0.0,1.0,100,0.00,,,0.00,Wunderground v.1.15,2013-06-24 00:46:00,
2013-06-23 20:51:00,79.9,79.9,29.86,SSE,162,0.0,0.0,100,0.00,,,0.00,Wunderground v.1.15,2013-06-24 00:51:00,
2013-06-23 20:57:00,79.6,79.6,29.86,SSE,160,0.0,0.0,100,0.00,,,0.00,Wunderground v.1.15,2013-06-24 00:57:00,
2013-06-23 21:02:00,79.2,79.2,29.86,SSE,158,0.0,5.0,100,0.00,,,0.00,Wunderground v.1.15,2013-06-24 01:02:00,
2013-06-23 21:09:00,79.0,79.0,29.86,SSE,158,0.0,5.0,100,0.00,,,0.00,Wunderground v.1.15,2013-06-24 01:09:00,
2013-06-23 21:14:00,78.8,78.8,29.86,SSE,157,0.0,0.0,100,0.00,,,0.00,Wunderground v.1.15,2013-06-24 01:14:00,
2013-06-23 21:20:00,78.5,78.5,29.86,SSE,151,0.0,0.0,100,0.00,,,0.00,Wunderground v.1.15,2013-06-24 01:20:00,
2013-06-23 21:25:00,78.3,78.3,29.86,SSE,150,0.0,0.0,100,0.00,,,0.00,Wunderground v.1.15,2013-06-24 01:25:00,
2013-06-23 21:31:00,77.9,77.9,29.86,SE,126,0.0,0.0,100,0.00,,,0.00,Wunderground v.1.15,2013-06-24 01:31:00,
2013-06-23 21:36:00,77.6,77.6,29.86,SSE,157,0.0,0.0,100,0.00,,,0.00,Wunderground v.1.15,2013-06-24 01:36:00,
2013-06-23 21:42:00,77.2,77.2,29.86,SE,144,0.0,0.0,100,0.00,,,0.00,Wunderground v.1.15,2013-06-24 01:42:00,
2013-06-23 21:47:00,76.7,76.7,29.86,SE,145,0.0,0.0,100,0.00,,,0.00,Wunderground v.1.15,2013-06-24 01:47:00,
2013-06-23 21:54:00,76.5,76.5,29.86,SSE,157,0.0,0.0,100,0.00,,,0.00,Wunderground v.1.15,2013-06-24 01:54:00,
2013-06-23 21:59:00,76.0,76.0,29.86,SSE,155,0.0,0.0,100,0.00,,,0.00,Wunderground v.1.15,2013-06-24 01:59:00,
2013-06-23 22:04:00,75.8,75.8,29.88,SSE,154,0.0,7.0,100,0.00,,,0.00,Wunderground v.1.15,2013-06-24 02:04:00,
2013-06-23 22:09:00,75.8,75.8,29.88,SSE,154,0.0,7.0,100,0.00,,,0.00,Wunderground v.1.15,2013-06-24 02:09:00,
2013-06-23 22:15:00,75.3,75.3,29.88,SSE,148,0.0,0.0,100,0.00,,,0.00,Wunderground v.1.15,2013-06-24 02:15:00,
2013-06-23 22:20:00,75.3,75.3,29.88,North,11,0.0,0.0,100,0.00,,,0.00,Wunderground v.1.15,2013-06-24 02:20:00,
2013-06-23 22:25:00,75.1,75.1,29.88,NNE,13,0.0,0.0,100,0.00,,,0.00,Wunderground v.1.15,2013-06-24 02:25:00,
2013-06-23 22:31:00,75.1,75.1,29.90,NNE,14,0.0,0.0,100,0.00,,,0.00,Wunderground v.1.15,2013-06-24 02:31:00,
2013-06-23 22:37:00,74.7,74.7,29.90,NNE,14,0.0,0.0,100,0.00,,,0.00,Wunderground v.1.15,2013-06-24 02:37:00,
2013-06-23 22:44:00,74.6,74.6,29.90,NNE,13,0.0,0.0,100,0.00,,,0.00,Wunderground v.1.15,2013-06-24 02:44:00,
2013-06-23 22:49:00,74.4,74.4,29.90,North,6,0.0,3.0,100,0.00,,,0.00,Wunderground v.1.15,2013-06-24 02:49:00,
2013-06-23 22:54:00,74.6,74.6,29.90,North,6,1.0,1.0,100,0.00,,,0.00,Wunderground v.1.15,2013-06-24 02:54:00,
2013-06-23 23:00:00,74.6,74.6,29.91,North,6,0.0,0.0,100,0.00,,,0.00,Wunderground v.1.15,2013-06-24 03:00:00,
2013-06-23 23:06:00,74.6,74.6,29.91,North,6,0.0,0.0,100,0.00,,,0.00,Wunderground v.1.15,2013-06-24 03:06:00,
2013-06-23 23:11:00,74.6,74.6,29.91,North,6,0.0,0.0,100,0.00,,,0.00,Wunderground v.1.15,2013-06-24 03:11:00,
2013-06-23 23:16:00,74.7,74.7,29.91,North,6,0.0,0.0,100,0.00,,,0.00,Wunderground v.1.15,2013-06-24 03:16:00,
2013-06-23 23:21:00,74.7,74.7,29.91,North,6,0.0,0.0,100,0.00,,,0.00,Wunderground v.1.15,2013-06-24 03:21:00,
2013-06-23 23:27:00,74.4,74.4,29.91,North,6,0.0,0.0,100,0.00,,,0.00,Wunderground v.1.15,2013-06-24 03:27:00,
2013-06-23 23:32:00,74.2,74.2,29.91,North,6,0.0,0.0,100,0.00,,,0.00,Wunderground v.1.15,2013-06-24 03:32:00,
2013-06-23 23:37:00,74.2,74.2,29.91,North,7,0.0,0.0,100,0.00,,,0.00,Wunderground v.1.15,2013-06-24 03:37:00,
2013-06-23 23:44:00,74.0,74.0,29.91,North,7,0.0,0.0,100,0.00,,,0.00,Wunderground v.1.15,2013-06-24 03:44:00,
2013-06-23 23:49:00,73.9,73.9,29.92,North,7,0.0,0.0,100,0.00,,,0.00,Wunderground v.1.15,2013-06-24 03:49:00,
2013-06-23 23:54:00,73.9,73.9,29.92,North,7,0.0,1.0,100,0.00,,,0.00,Wunderground v.1.15,2013-06-24 03:54:00,
2013-06-23 23:59:00,73.9,73.9,29.92,North,7,0.0,1.0,100,0.00,,,0.00,Wunderground v.1.15,2013-06-24 03:59:00,